Latest Weather Observations for Hogan Island

IDV60801

Issued at 1:35 pm EST Monday 28 July 2014 (issued every 30 minutes, with the page automatically refreshed every 10 minutes)

About weather observations | Map of weather stations | Latest weather observations for VIC | Other Formats
Station Details ID: 200838 Name: HOGAN ISLAND Lat: -39.22 Lon: 146.98 Height: 116.0 m
Data from the previous 72 hours. | See also: Recent months at Hogan Island
Date/Time
EST
Temp
°C
App
Temp
°C
Dew
Point
Rel
Hum
%
Delta-T
°C
Wind Press
QNH
hPa
Press
MSL
hPa
Rain
since 9 am
mm
Dir
 
Spd
km/h
Gust
km/h
Spd
kts
Gust
kts
28/01:30pm 15.6 11.3 9.3 66 3.3 WNW 22 28 12 15 1011.0 - 0.0
28/01:00pm 15.5 10.0 9.0 65 3.4 NW 28 35 15 19 1011.3 - 0.0
28/12:30pm 15.4 8.0 8.4 63 3.6 NW 37 46 20 25 1011.7 - 0.0
28/12:00pm 15.2 6.5 7.5 60 3.8 NW 43 54 23 29 1012.0 1012.1 0.0
28/11:30am 14.8 5.9 6.9 59 3.9 NW 43 57 23 31 1012.2 - 0.0
28/11:25am 14.7 5.7 6.5 58 4.0 NW 43 61 23 33 1012.3 - 0.0
28/11:00am 14.1 5.2 6.9 62 3.5 NW 43 54 23 29 1012.5 - 0.0
28/10:30am 13.9 3.9 6.0 59 3.8 WNW 48 61 26 33 1012.7 - 0.0
28/10:00am 13.7 3.7 6.1 60 3.6 NW 48 57 26 31 1012.8 - 0.0
28/09:30am 13.6 2.7 5.7 59 3.7 WNW 52 63 28 34 1012.6 - 0.0
28/09:00am 12.8 3.7 6.6 66 3.0 NW 44 54 24 29 1012.9 1013.0 0.0
28/08:30am 13.0 3.1 6.4 64 3.2 NW 48 61 26 33 1013.1 - 0.0
28/08:00am 12.8 2.5 6.4 65 3.1 NW 50 63 27 34 1013.4 - 0.0
28/07:30am 12.7 2.0 6.3 65 3.1 NW 52 63 28 34 1013.4 - 0.0
28/07:00am 12.7 2.4 6.5 66 3.0 NW 50 69 27 37 1013.3 - 0.0
28/06:30am 12.6 1.2 6.9 68 2.8 WNW 56 65 30 35 1013.0 - 0.0
28/06:00am 12.9 -1.0 6.7 66 3.0 WNW 69 80 37 43 1012.7 1012.8 0.0
28/05:30am 12.9 -0.5 7.1 68 2.8 WNW 67 80 36 43 1012.7 - 0.0
28/05:00am 13.0 -0.4 7.0 67 2.9 WNW 67 76 36 41 1012.5 - 0.0
28/04:30am 12.6 2.5 7.3 70 2.6 NW 50 67 27 36 1013.4 - 0.0
28/04:28am 12.7 3.0 7.4 70 2.6 NW 48 67 26 36 1013.4 - 0.0
28/04:00am 12.6 2.1 7.3 70 2.6 WNW 52 65 28 35 1013.8 - 0.0
28/03:30am 12.6 3.3 7.7 72 2.4 NW 46 61 25 33 1014.2 - 0.0
28/03:00am 12.5 3.6 7.6 72 2.4 NW 44 61 24 33 1014.7 1014.8 0.0
28/02:30am 12.2 3.6 8.1 76 2.0 NW 43 52 23 28 1015.2 - 0.0
28/02:00am 12.1 2.9 8.0 76 2.0 NW 46 57 25 31 1015.5 - 0.0
28/01:30am 12.0 3.1 7.7 75 2.1 NW 44 61 24 33 1015.4 - 0.0
28/01:25am 12.1 3.4 7.8 75 2.1 NW 43 61 23 33 1015.4 - 0.0
28/01:00am 12.3 -0.2 7.8 74 2.2 WNW 63 72 34 39 1014.9 - 0.0
28/12:30am 12.2 1.5 7.9 75 2.1 WNW 54 65 29 35 1015.6 - 0.0
28/12:00am 12.2 1.1 8.1 76 2.0 WNW 56 65 30 35 1015.9 1016.0 0.0
 
Date/Time
EST
Temp
°C
App
Temp
°C
Dew
Point
Rel
Hum
%
Delta-T
°C
Wind Press
QNH
hPa
Press
MSL
hPa
Rain
since 9 am
mm
Dir
 
Spd
km/h
Gust
km/h
Spd
kts
Gust
kts
27/11:30pm 12.4 1.1 8.1 75 2.1 WNW 57 69 31 37 1016.1 - 0.0
27/11:00pm 12.1 2.2 8.2 77 1.9 WNW 50 61 27 33 1016.7 - 0.0
27/10:30pm 11.9 3.7 8.0 77 1.9 NW 41 52 22 28 1017.5 - 0.0
27/10:00pm 12.0 3.2 7.9 76 2.0 NW 44 57 24 31 1017.4 - 0.0
27/09:30pm 11.9 3.0 7.8 76 2.0 NW 44 54 24 29 1017.9 - 0.0
27/09:00pm 11.8 4.4 8.3 79 1.7 NW 37 46 20 25 1018.2 1018.4 0.0
27/08:30pm 12.1 3.4 8.6 79 1.7 NW 44 54 24 29 1018.1 - 0.0
27/08:00pm 12.1 3.1 8.8 80 1.7 NW 46 59 25 32 1018.0 - 0.0
27/07:30pm 12.2 3.6 8.7 79 1.8 WNW 44 54 24 29 1018.2 - 0.0
27/07:00pm 12.5 3.9 9.0 79 1.8 WNW 44 54 24 29 1018.5 - 0.0
27/06:30pm 12.4 5.2 9.1 80 1.7 NW 37 46 20 25 1018.5 - 0.0
27/06:00pm 12.7 3.0 9.0 78 1.9 WNW 50 57 27 31 1018.2 1018.4 0.0
27/05:30pm 12.6 3.1 8.5 76 2.1 WNW 48 57 26 31 1018.2 - 0.0
27/05:29pm 12.6 3.5 8.5 76 2.1 WNW 46 57 25 31 1018.2 - 0.0
27/05:00pm 12.3 5.8 8.2 76 2.0 NW 32 39 17 21 1018.5 - 0.0
27/04:30pm 12.6 6.0 7.9 73 2.3 WNW 32 41 17 22 1018.6 - 0.0
27/04:00pm 12.5 4.7 8.2 75 2.1 WNW 39 44 21 24 1018.8 - 0.0
27/03:30pm 12.7 4.4 7.6 71 2.5 WNW 41 48 22 26 1018.9 - 0.0
27/03:00pm 12.9 4.0 7.6 70 2.6 WNW 44 52 24 28 1019.0 1019.2 0.0
27/02:30pm 12.9 5.9 8.6 75 2.2 WNW 35 39 19 21 1019.2 - 0.0
27/02:00pm 13.2 6.4 9.1 76 2.1 WNW 35 43 19 23 1019.5 - 0.0
27/01:30pm 12.7 6.4 8.8 77 2.0 NW 32 41 17 22 1019.7 - 0.0
27/01:00pm 12.4 6.1 8.9 79 1.8 WNW 32 43 17 23 1020.0 - 0.0
27/12:30pm 12.8 7.3 9.3 79 1.8 NW 28 35 15 19 1020.6 - 0.0
27/12:00pm 12.0 5.9 8.3 78 1.8 WNW 30 33 16 18 1021.2 1021.3 0.0
27/11:30am 12.5 6.2 9.0 79 1.8 WNW 32 37 17 20 1021.8 - 0.0
27/11:00am 11.9 5.1 9.3 84 1.3 WNW 35 41 19 22 1022.2 - 0.0
27/10:30am 11.6 5.3 9.7 88 1.0 WNW 33 39 18 21 1022.6 - 0.0
27/10:00am 11.9 5.4 10.3 90 0.8 WNW 35 41 19 22 1022.7 - 0.0
27/09:30am 11.8 5.3 10.2 90 0.8 WNW 35 41 19 22 1022.7 - 0.0
27/09:00am 11.8 5.6 9.9 88 1.0 WNW 33 41 18 22 1022.8 1022.9 0.8
27/08:30am 12.1 5.6 10.2 88 1.0 W 35 44 19 24 1022.7 - 0.8
27/08:00am 11.7 5.0 9.8 88 1.0 W 35 41 19 22 1022.7 - 0.8
27/07:30am 11.7 5.1 9.9 89 0.9 W 35 41 19 22 1022.5 - 0.8
27/07:00am 11.5 4.5 9.9 90 0.8 W 37 43 20 23 1022.4 - 0.8
27/06:30am 11.8 4.2 10.4 91 0.7 W 41 48 22 26 1022.0 - 0.8
27/06:00am 11.9 5.1 10.6 92 0.7 W 37 43 20 23 1021.8 1021.9 0.8
27/05:30am 12.0 5.6 10.7 92 0.7 W 35 41 19 22 1021.7 - 0.8
27/05:00am 11.7 5.6 10.3 91 0.7 W 33 37 18 20 1021.8 - 0.8
27/04:30am 11.8 5.3 10.4 91 0.7 W 35 39 19 21 1021.9 - 0.8
27/04:00am 11.8 4.1 10.2 90 0.8 W 41 44 22 24 1021.9 - 0.8
27/03:30am 11.7 5.1 10.1 90 0.8 W 35 37 19 20 1021.9 - 0.8
27/03:00am 11.8 5.6 10.2 90 0.8 W 33 39 18 21 1021.9 1022.0 0.8
27/02:30am 11.8 5.6 10.2 90 0.8 W 33 39 18 21 1022.1 - 0.8
27/02:00am 11.6 5.1 10.2 91 0.7 W 35 43 19 23 1022.0 - 0.8
27/01:30am 11.7 5.2 10.3 91 0.7 WSW 35 41 19 22 1022.2 - 0.8
27/01:00am 11.6 5.1 10.2 91 0.7 WSW 35 43 19 23 1022.2 - 0.8
27/12:30am 11.7 4.8 10.3 91 0.7 W 37 43 20 23 1022.4 - 0.8
27/12:00am 11.8 4.2 10.5 92 0.7 W 41 46 22 25 1022.5 1022.6 0.8
 
Date/Time
EST
Temp
°C
App
Temp
°C
Dew
Point
Rel
Hum
%
Delta-T
°C
Wind Press
QNH
hPa
Press
MSL
hPa
Rain
since 9 am
mm
Dir
 
Spd
km/h
Gust
km/h
Spd
kts
Gust
kts
26/11:30pm 11.9 4.7 10.6 92 0.7 W 39 44 21 24 1022.5 - 0.8
26/11:00pm 11.6 5.1 10.3 92 0.7 W 35 41 19 22 1022.6 - 0.8
26/10:30pm 11.5 5.0 10.2 92 0.7 W 35 39 19 21 1022.5 - 0.8
26/10:00pm 11.6 5.1 10.3 92 0.7 WSW 35 43 19 23 1022.4 - 0.8
26/09:30pm 11.7 4.9 10.6 93 0.6 WSW 37 44 20 24 1022.3 - 0.8
26/09:00pm 11.4 4.9 10.3 93 0.6 WSW 35 41 19 22 1022.1 1022.2 0.8
26/08:30pm 11.6 4.8 10.7 94 0.5 WSW 37 43 20 23 1021.7 - 0.8
26/08:00pm 12.0 5.3 11.1 94 0.5 WSW 37 43 20 23 1021.5 - 0.8
26/07:30pm 12.1 4.7 11.2 94 0.5 WSW 41 46 22 25 1021.4 - 0.8
26/07:00pm 12.1 5.5 11.2 94 0.5 WSW 37 43 20 23 1021.2 - 0.8
26/06:30pm 12.2 5.6 11.4 95 0.4 W 37 43 20 23 1020.8 - 0.8
26/06:00pm 12.2 5.6 11.4 95 0.4 WSW 37 43 20 23 1020.5 1020.6 0.8
26/05:30pm 12.2 6.0 11.3 94 0.5 WSW 35 41 19 22 1020.3 - 0.8
26/05:00pm 12.1 4.7 11.2 94 0.5 WSW 41 46 22 25 1019.9 - 0.8
26/04:30pm 12.3 4.4 11.4 94 0.5 WSW 44 50 24 27 1019.5 - 0.8
26/04:00pm 12.3 4.4 11.4 94 0.5 W 44 50 24 27 1019.2 - 0.8
26/03:30pm 12.4 5.1 11.5 94 0.5 W 41 46 22 25 1018.9 - 0.8
26/03:00pm 12.3 5.0 11.4 94 0.5 W 41 46 22 25 1018.6 1018.8 0.8
26/02:30pm 13.1 5.5 12.3 95 0.4 W 44 54 24 29 1018.3 - 0.4
26/02:00pm 12.4 4.5 11.6 95 0.4 WNW 44 52 24 28 1018.2 - 0.4
26/01:30pm 11.6 5.2 10.7 94 0.5 WNW 35 43 19 23 1018.5 - 0.4
26/01:00pm 11.9 4.4 10.8 93 0.6 WNW 41 48 22 26 1018.8 - 0.2
26/12:30pm 12.0 4.5 10.9 93 0.6 WNW 41 46 22 25 1019.1 - 0.2
26/12:00pm 11.8 4.2 10.5 92 0.7 WNW 41 50 22 27 1019.4 1019.6 0.2
26/11:30am 11.9 5.4 10.5 91 0.7 WNW 35 44 19 24 1019.9 - 0.0
26/11:00am 11.6 5.0 9.9 89 0.9 NW 35 44 19 24 1020.2 - 0.0
26/10:30am 11.9 5.3 10.1 89 0.9 WNW 35 44 19 24 1020.3 - 0.0
26/10:00am 11.7 5.1 9.9 89 0.9 NW 35 44 19 24 1020.4 - 0.0
26/09:30am 11.6 4.9 9.5 87 1.1 NW 35 44 19 24 1020.4 - 0.0
26/09:00am 11.8 4.7 9.4 85 1.2 WNW 37 44 20 24 1020.2 1020.3 0.0
26/08:30am 11.9 3.9 9.1 83 1.4 NW 41 50 22 27 1019.9 - 0.0
26/08:00am 12.0 5.2 9.2 83 1.4 NW 35 46 19 25 1019.9 - 0.0
26/07:30am 11.9 5.4 8.9 82 1.5 WNW 33 43 18 23 1019.7 - 0.0
26/07:00am 11.9 5.4 8.9 82 1.5 NW 33 44 18 24 1019.4 - 0.0
26/06:30am 12.0 3.6 8.8 81 1.6 WNW 43 52 23 28 1019.0 - 0.0
26/06:00am 12.1 4.1 8.9 81 1.6 WNW 41 54 22 29 1018.8 1019.0 0.0
26/05:30am 12.1 4.8 8.9 81 1.6 WNW 37 46 20 25 1018.7 - 0.0
26/05:00am 12.3 4.4 9.3 82 1.5 WNW 41 50 22 27 1018.4 - 0.0
26/04:30am 12.3 3.8 9.3 82 1.5 WNW 44 52 24 28 1018.3 - 0.0
26/04:00am 12.2 6.8 9.4 83 1.4 NW 28 35 15 19 1018.6 - 0.0
26/03:30am 12.2 6.0 9.2 82 1.5 WNW 32 37 17 20 1018.7 - 0.0
26/03:00am 12.3 7.2 9.1 81 1.6 WNW 26 32 14 17 1018.8 1019.0 0.0
26/02:30am 12.2 7.4 9.0 81 1.6 NW 24 32 13 17 1018.8 - 0.0
26/02:00am 12.4 7.7 9.2 81 1.6 WNW 24 30 13 16 1018.8 - 0.0
26/01:30am 12.5 7.7 9.0 79 1.8 NW 24 30 13 16 1018.6 - 0.0
26/01:00am 12.5 6.6 9.0 79 1.8 NW 30 35 16 19 1018.4 - 0.0
26/12:30am 12.6 7.5 9.1 79 1.8 NW 26 30 14 16 1018.6 - 0.0
26/12:00am 12.7 8.7 9.2 79 1.8 NNW 20 26 11 14 1018.6 1018.8 0.0
 
Date/Time
EST
Temp
°C
App
Temp
°C
Dew
Point
Rel
Hum
%
Delta-T
°C
Wind Press
QNH
hPa
Press
MSL
hPa
Rain
since 9 am
mm
Dir
 
Spd
km/h
Gust
km/h
Spd
kts
Gust
kts
25/11:30pm 12.8 6.9 8.9 77 2.0 NW 30 33 16 18 1018.8 - 0.0
25/11:00pm 12.9 7.7 9.0 77 2.0 NNW 26 35 14 19 1018.8 - 0.0
25/10:30pm 13.0 8.2 8.9 76 2.1 NNW 24 30 13 16 1018.7 - 0.0
25/10:00pm 13.3 8.9 9.0 75 2.2 NNW 22 26 12 14 1018.7 - 0.0
25/09:30pm 13.2 9.4 8.9 75 2.2 NNW 19 26 10 14 1018.5 - 0.0
25/09:00pm 13.3 8.9 8.8 74 2.3 NNW 22 26 12 14 1018.5 1018.7 0.0
25/08:30pm 12.9 9.0 8.8 76 2.1 NW 19 22 10 12 1018.3 - 0.0
25/08:00pm 13.1 9.2 8.8 75 2.2 NW 19 22 10 12 1018.1 - 0.0
25/07:30pm 13.5 9.0 8.4 71 2.6 NW 22 26 12 14 1017.8 - 0.0
25/07:00pm 13.5 8.6 8.4 71 2.6 NW 24 30 13 16 1017.6 - 0.0
25/06:30pm 13.6 9.4 8.4 71 2.6 NNW 20 24 11 13 1017.2 - 0.0
25/06:00pm 13.4 8.8 8.0 70 2.7 NW 22 26 12 14 1017.0 1017.1 0.0
25/05:30pm 13.0 10.0 7.9 71 2.5 N 13 17 7 9 1016.8 - 0.0
25/05:00pm 13.1 10.1 7.5 69 2.8 N 13 19 7 10 1016.5 - 0.0
25/04:30pm 14.8 11.5 8.1 64 3.4 NNW 15 19 8 10 1016.3 - 0.0
25/04:00pm 14.8 11.1 9.4 70 2.8 NNW 19 22 10 12 1016.1 - 0.0
25/03:30pm 14.0 10.2 9.0 72 2.6 NNW 19 26 10 14 1016.0 - 0.0
25/03:00pm 14.2 9.7 8.4 68 2.9 NW 22 30 12 16 1015.9 1016.0 0.0
25/02:30pm 14.2 10.2 9.0 71 2.7 NW 20 26 11 14 1015.8 - 0.0
25/02:00pm 14.3 10.4 8.7 69 2.8 N 19 26 10 14 1015.8 - 0.0

Other Formats:

Comma delimited format used in spreadsheet applications
http://www.bom.gov.au/fwo/IDV60801/IDV60801.94949.axf

JavaScript Object Notation format (JSON) in row-major order
http://www.bom.gov.au/fwo/IDV60801/IDV60801.94949.json